MEL weather

Melbourne International Airport
Melbourne, Victoria, Australia

Public forecast

Using degrees Celsius for public forecast. Weather courtesy of forecast.io.

METAR (pilot weather report)

Retrieved 2018/04/27 08:00 UTC (18 minutes ago):

YMML 270800Z 18008KT 9999 BKN036 15/08 Q1027 NOSIG

TAF (pilot weather forecast)

Retrieved 2018/04/27 06:38 UTC (2 hours ago):

TAF YMML 270528Z 2706/2812 17010KT 9999 BKN035 FM271400 24005KT 9999 FEW010 FM272000 22005KT 9999 BKN010 BECMG 2723/2801 21010KT CAVOK FM280800 17010KT 9999 SCT020 PROB30 2716/2722 2000 BR BKN005